UPSVAC Airport Information Service

New York Newark Liberty International Airport

ICAO: KEWR Country: United States
Latitude: 40.6925 Longitude: -74.1686
Latest Arrival : UPS2348 (KSDF-KEWR) Latest Departure : UPS170 (KEWR-KDFW)


WX CaptureLIVE
Data provided by noaa.gov | Fetched at 23:14:56

METAR : KEWR 112158Z 29016G23KT 10SM FEW050 BKN075 BKN090 18/00 A3000 RMK AO2 WSHFT 2138 VCSH T01780000

TAF : KEWR 112040Z 1121/1224 31013G18KT P6SM VCSH BKN060 FM120100 30012KT P6SM SCT060 SCT250 FM121400 32012G19KT P6SM BKN050 FM121900 29014KT P6SM SCT250


Runway Data for KEWR
Data provided by openaviationdata.com

Runway ID Mag Var Hdg Length Elevation Surface ILS Freq ILS Id ILS Slope
04L -13 38° 11003 ft 18 ft Asphalt 110.75 IEWR 3
04R -13 38° 9983 ft 18 ft Asphalt 108.7 IEZA 3
11 -13 108° 6790 ft 18 ft Asphalt 109.15 IGPR 3
22L -13 218° 9983 ft 18 ft Asphalt 108.7 ILSQ 3
22R -13 218° 11003 ft 18 ft Asphalt 110.75 IJNN 3
29 -13 288° 6790 ft 18 ft Asphalt -- -- --

New York Newark Liberty International Airport, United States
Use only for reference purposes



Not for navigational purposes.